Time;durP1;ratioP1;P1;durP2;ratioP2;P2;SDS_P1;SDS_P2;PMS_P1;PMS_P2;Temp;Humidity;BMP_temperature;BMP_pressure;BME280_temperature;BME280_humidity;BME280_pressure;Samples;Min_cycle;Max_cycle;Signal;HPM_P1;HPM_P2
2021/04/19 00:00:04;;;;;;;22.32;16.57;;;;;;;8.61;78.69;100739.84;1716932;81;21300;-59
2021/04/19 00:03:10;;;;;;;24.37;16.62;;;;;;;8.61;78.70;100738.48;1728696;80;21412;-59
2021/04/19 00:06:16;;;;;;;22.52;15.23;;;;;;;8.63;78.76;100736.47;1723708;81;21372;-59
2021/04/19 00:09:22;;;;;;;22.48;15.20;;;;;;;8.65;78.80;100734.45;1726392;81;21456;-60
2021/04/19 00:12:27;;;;;;;21.50;16.10;;;;;;;8.66;78.69;100729.33;1722056;80;21241;-60
2021/04/19 00:15:33;;;;;;;24.75;17.50;;;;;;;8.63;78.62;100730.14;1727819;80;21375;-59
2021/04/19 00:18:39;;;;;;;21.97;16.20;;;;;;;8.62;78.82;100725.70;1724510;81;21372;-60
2021/04/19 00:21:45;;;;;;;20.52;15.35;;;;;;;8.65;78.90;100727.63;1720191;80;21983;-60
2021/04/19 00:24:50;;;;;;;24.20;17.17;;;;;;;8.65;78.87;100713.11;1719131;80;21269;-59
2021/04/19 00:27:57;;;;;;;24.25;17.57;;;;;;;8.64;78.81;100719.59;1724434;82;21281;-59
2021/04/19 00:31:02;;;;;;;22.87;16.35;;;;;;;8.64;79.06;100718.23;1711881;81;21798;-58
2021/04/19 00:34:08;;;;;;;24.87;16.48;;;;;;;8.62;79.11;100719.75;1712014;80;21280;-59
2021/04/19 00:37:14;;;;;;;20.70;14.55;;;;;;;8.61;79.34;100715.82;1717005;81;21245;-59
2021/04/19 00:40:24;;;;;;;25.02;16.10;;;;;;;8.58;79.45;100714.23;1703661;79;21286;-59
2021/04/19 00:43:30;;;;;;;23.30;16.73;;;;;;;8.57;79.65;100704.84;1702144;83;21719;-59
2021/04/19 00:46:35;;;;;;;23.32;16.45;;;;;;;8.59;79.95;100704.19;1712981;79;21315;-59
2021/04/19 00:49:41;;;;;;;24.98;16.55;;;;;;;8.60;80.15;100701.80;1727793;82;21245;-59
2021/04/19 00:52:46;;;;;;;21.82;16.00;;;;;;;8.52;79.98;100707.17;1729127;82;21277;-59
2021/04/19 00:55:53;;;;;;;24.05;16.35;;;;;;;8.42;80.16;100703.68;1714877;81;21241;-59
2021/04/19 00:58:59;;;;;;;24.55;16.05;;;;;;;8.34;80.31;100705.79;1730314;81;21364;-58
2021/04/19 01:02:06;;;;;;;25.57;17.48;;;;;;;8.22;80.64;100700.67;1754460;80;21354;-59
2021/04/19 01:05:16;;;;;;;24.43;16.17;;;;;;;8.20;81.06;100695.87;1724678;81;21322;-59
2021/04/19 01:08:22;;;;;;;23.87;16.60;;;;;;;8.19;81.20;100700.98;1729343;81;21244;-59
2021/04/19 01:11:28;;;;;;;25.23;16.25;;;;;;;8.16;81.27;100695.34;1707608;81;21335;-58
2021/04/19 01:14:34;;;;;;;19.27;14.60;;;;;;;8.13;81.42;100697.51;1699305;83;21398;-59
2021/04/19 01:17:41;;;;;;;20.10;14.35;;;;;;;8.12;81.52;100698.00;1712947;79;21387;-60
2021/04/19 01:20:54;;;;;;;24.40;14.95;;;;;;;8.09;81.61;100696.08;1749849;80;21211;-61
2021/04/19 01:24:01;;;;;;;18.23;13.83;;;;;;;8.06;81.68;100692.30;1726319;78;21283;-59
2021/04/19 01:27:07;;;;;;;20.20;14.55;;;;;;;7.98;81.82;100689.47;1747900;80;21346;-60
2021/04/19 01:30:15;;;;;;;22.42;15.28;;;;;;;7.98;82.07;100697.65;1750077;79;21752;-58
2021/04/19 01:33:22;;;;;;;20.35;14.63;;;;;;;7.98;82.16;100696.29;1719866;82;21235;-59
2021/04/19 01:36:31;;;;;;;17.98;14.15;;;;;;;7.95;82.21;100690.65;1715583;80;21442;-59
2021/04/19 01:39:38;;;;;;;20.40;13.78;;;;;;;7.91;82.26;100689.75;1703012;81;21360;-58
2021/04/19 01:42:43;;;;;;;20.48;14.83;;;;;;;7.86;82.39;100691.56;1708504;82;21221;-59
2021/04/19 01:45:49;;;;;;;20.48;15.32;;;;;;;7.86;82.57;100690.70;1716921;79;21376;-59
2021/04/19 01:48:55;;;;;;;21.20;14.43;;;;;;;7.84;82.55;100684.03;1707851;83;21439;-59
2021/04/19 01:52:01;;;;;;;20.27;14.80;;;;;;;7.81;82.70;100680.25;1708603;81;21215;-58
2021/04/19 01:55:07;;;;;;;23.10;15.00;;;;;;;7.84;82.90;100675.86;1722948;80;21793;-59
2021/04/19 01:58:19;;;;;;;23.85;15.75;;;;;;;7.84;82.76;100685.89;1722966;81;21196;-60
2021/04/19 02:01:25;;;;;;;19.40;14.28;;;;;;;7.81;82.89;100679.39;1708648;80;21229;-59
2021/04/19 02:04:39;;;;;;;19.40;14.70;;;;;;;7.79;82.96;100677.31;1729822;81;21198;-59
2021/04/19 02:08:08;;;;;;;21.97;15.10;;;;;;;7.78;83.04;100679.69;1724070;80;21847;-60
2021/04/19 02:11:56;;;;;;;21.55;14.45;;;;;;;7.82;83.27;100677.03;1712819;80;21348;-59
2021/04/19 02:15:16;;;;;;;20.90;14.68;;;;;;;7.93;83.36;100684.48;1719888;80;21222;-60
2021/04/19 02:18:42;;;;;;;23.10;15.78;;;;;;;7.99;83.14;100679.78;1749973;80;21271;-58
2021/04/19 02:21:55;;;;;;;23.67;15.63;;;;;;;8.02;83.02;100680.00;1714725;83;21386;-59
2021/04/19 02:25:24;;;;;;;22.15;15.23;;;;;;;8.06;83.02;100674.08;1704800;83;21372;-59
2021/04/19 02:28:37;;;;;;;18.73;14.65;;;;;;;8.11;82.80;100677.71;1714686;81;21241;-59
2021/04/19 02:31:46;;;;;;;20.80;14.23;;;;;;;8.02;82.40;100671.33;1702723;82;21207;-59
2021/04/19 02:34:55;;;;;;;20.23;13.60;;;;;;;7.95;82.51;100670.70;1720809;80;21261;-60
2021/04/19 02:38:04;;;;;;;21.25;15.55;;;;;;;7.91;82.50;100677.48;1711504;82;21916;-59
2021/04/19 02:41:14;;;;;;;20.95;14.73;;;;;;;7.83;82.48;100671.43;1704652;82;21431;-60
2021/04/19 02:44:23;;;;;;;18.55;11.78;;;;;;;7.87;82.71;100677.41;1701871;81;21388;-59
2021/04/19 02:47:37;;;;;;;23.98;15.08;;;;;;;7.87;82.60;100672.83;1712947;83;21280;-58
2021/04/19 02:50:46;;;;;;;19.50;14.10;;;;;;;7.88;82.61;100672.34;1727737;83;21253;-60
2021/04/19 02:53:52;;;;;;;18.80;13.88;;;;;;;7.88;82.49;100679.15;1705646;83;21388;-59
2021/04/19 02:56:59;;;;;;;18.00;13.93;;;;;;;7.86;82.41;100675.22;1706979;83;21422;-60
2021/04/19 03:00:04;;;;;;;19.45;13.80;;;;;;;7.87;82.36;100680.14;1728269;82;21359;-60
2021/04/19 03:03:29;;;;;;;19.02;13.40;;;;;;;7.87;82.31;100682.86;1737257;80;21484;-60
2021/04/19 03:06:37;;;;;;;17.80;13.13;;;;;;;7.90;82.21;100683.42;1717376;81;21379;-59
2021/04/19 03:09:49;;;;;;;16.87;12.63;;;;;;;7.90;82.02;100681.20;1716948;80;21419;-59
2021/04/19 03:12:58;;;;;;;18.25;13.30;;;;;;;7.85;81.77;100683.55;1722086;80;21858;-59
2021/04/19 03:19:39;;;;;;;17.73;13.08;;;;;;;7.85;81.75;100684.91;1865879;76;22754;-59
2021/04/19 03:22:51;;;;;;;16.82;12.88;;;;;;;7.83;81.76;100686.42;1805388;79;21319;-60
2021/04/19 03:26:02;;;;;;;17.52;12.68;;;;;;;7.90;81.71;100690.73;1801014;79;21215;-58
2021/04/19 03:29:07;;;;;;;19.48;14.60;;;;;;;7.94;81.46;100684.86;1784593;79;21353;-58
2021/04/19 03:32:18;;;;;;;17.27;13.13;;;;;;;7.95;81.13;100687.05;1805307;79;21197;-60
2021/04/19 03:35:28;;;;;;;17.90;13.10;;;;;;;7.94;81.08;100686.71;1804272;79;21220;-59
2021/04/19 03:38:36;;;;;;;17.60;13.18;;;;;;;7.89;80.65;100691.27;1804647;79;21220;-60
2021/04/19 03:41:49;;;;;;;17.82;13.15;;;;;;;7.81;80.48;100694.37;1805159;79;21709;-59
2021/04/19 03:44:57;;;;;;;16.95;11.68;;;;;;;7.76;80.56;100689.88;1804825;79;21211;-60
2021/04/19 03:48:06;;;;;;;17.52;13.05;;;;;;;7.75;80.46;100697.70;1802755;79;21405;-60
2021/04/19 03:51:16;;;;;;;15.85;12.45;;;;;;;7.75;80.54;100707.25;1804972;79;21733;-59
2021/04/19 03:54:21;;;;;;;19.77;13.10;;;;;;;7.76;80.53;100702.14;1804629;79;21339;-59
2021/04/19 03:57:29;;;;;;;16.23;11.50;;;;;;;7.81;80.43;100701.19;1805128;79;21326;-58
2021/04/19 04:00:36;;;;;;;13.18;10.25;;;;;;;7.82;80.20;100702.40;1804505;79;21228;-59
2021/04/19 04:03:51;;;;;;;15.70;11.15;;;;;;;7.83;79.92;100704.63;1804665;79;21193;-59
2021/04/19 04:07:05;;;;;;;14.18;10.78;;;;;;;7.79;79.82;100704.06;1804633;79;21335;-59
2021/04/19 04:10:15;;;;;;;15.38;10.08;;;;;;;7.87;79.85;100708.27;1803170;79;21282;-59
2021/04/19 04:13:21;;;;;;;13.62;10.25;;;;;;;7.92;79.61;100711.89;1804394;79;21208;-60
2021/04/19 04:16:28;;;;;;;13.28;9.18;;;;;;;7.92;79.11;100721.43;1804732;79;21180;-60
2021/04/19 04:19:38;;;;;;;14.53;10.18;;;;;;;7.94;78.81;100720.29;1803229;79;21233;-59
2021/04/19 04:22:44;;;;;;;14.58;10.08;;;;;;;7.81;78.15;100718.90;1804875;79;21211;-59
2021/04/19 04:25:54;;;;;;;13.53;10.00;;;;;;;7.75;78.20;100718.14;1804876;79;21192;-59
2021/04/19 04:29:01;;;;;;;13.00;10.50;;;;;;;7.75;78.13;100711.33;1804713;79;21180;-59
2021/04/19 04:32:09;;;;;;;16.87;11.40;;;;;;;7.83;78.10;100705.99;1802228;79;21655;-59
2021/04/19 04:35:20;;;;;;;15.60;11.70;;;;;;;7.88;77.79;100718.14;1803246;79;21378;-60
2021/04/19 04:38:28;;;;;;;17.92;13.20;;;;;;;7.83;77.40;100721.85;1804099;79;21700;-59
2021/04/19 04:41:36;;;;;;;18.30;13.25;;;;;;;7.83;77.53;100723.70;1804053;79;21359;-59
2021/04/19 04:44:45;;;;;;;20.92;14.55;;;;;;;7.85;77.46;100727.15;1804168;79;21649;-59
2021/04/19 04:48:06;;;;;;;19.25;14.53;;;;;;;7.82;77.29;100726.09;1803912;79;21366;-59
2021/04/19 04:51:16;;;;;;;24.63;16.10;;;;;;;7.75;77.20;100720.88;1800436;79;21212;-59
2021/04/19 04:54:26;;;;;;;20.30;14.90;;;;;;;7.65;77.48;100724.99;1769405;80;21260;-60
2021/04/19 04:57:31;;;;;;;23.12;16.27;;;;;;;7.68;77.72;100717.02;1793943;79;21347;-60
2021/04/19 05:00:37;;;;;;;24.20;17.25;;;;;;;7.68;77.72;100728.78;1768926;80;21217;-59
2021/04/19 05:03:47;;;;;;;20.35;15.80;;;;;;;7.69;77.74;100725.56;1770189;81;21399;-60
2021/04/19 05:06:54;;;;;;;25.62;16.90;;;;;;;7.72;78.00;100733.44;1769796;80;21196;-59
2021/04/19 05:09:59;;;;;;;24.82;16.00;;;;;;;7.83;77.94;100731.88;1767901;80;21272;-60
2021/04/19 05:13:06;;;;;;;23.92;16.17;;;;;;;7.80;77.70;100743.09;1770640;80;21217;-59
2021/04/19 05:16:13;;;;;;;27.07;16.65;;;;;;;7.76;77.67;100747.09;1770755;80;21229;-57
2021/04/19 05:19:20;;;;;;;26.25;16.17;;;;;;;7.73;77.83;100741.46;1768494;79;21716;-60
2021/04/19 05:22:27;;;;;;;25.68;17.02;;;;;;;7.74;77.93;100738.23;1770911;81;21668;-60
2021/04/19 05:25:33;;;;;;;23.70;17.35;;;;;;;7.77;77.98;100735.21;1771915;80;21208;-60
2021/04/19 05:28:40;;;;;;;22.48;15.55;;;;;;;7.83;78.05;100740.92;1772124;81;21485;-60
2021/04/19 05:31:47;;;;;;;23.57;15.93;;;;;;;7.94;78.17;100731.69;1771717;81;21904;-59
2021/04/19 05:34:54;;;;;;;23.40;15.80;;;;;;;8.03;77.81;100735.73;1772047;80;21381;-60
2021/04/19 05:38:02;;;;;;;28.83;17.45;;;;;;;8.06;77.39;100738.16;1780224;79;21543;-61
2021/04/19 05:41:06;;;;;;;25.02;17.52;;;;;;;8.06;77.33;100736.80;1793391;79;21220;-60
2021/04/19 05:44:14;;;;;;;23.18;15.65;;;;;;;8.09;77.35;100736.48;1803792;79;21409;-59
2021/04/19 05:47:20;;;;;;;25.77;17.27;;;;;;;8.15;77.24;100739.13;1799289;79;21940;-59
2021/04/19 05:50:29;;;;;;;22.98;17.30;;;;;;;8.18;77.10;100732.84;1803779;79;21216;-60
2021/04/19 05:53:35;;;;;;;25.90;16.67;;;;;;;8.25;77.07;100729.03;1769614;81;21387;-59
2021/04/19 05:56:49;;;;;;;27.73;17.10;;;;;;;8.34;76.99;100722.16;1769208;80;22019;-60
2021/04/19 06:00:19;;;;;;;22.60;15.78;;;;;;;8.47;76.83;100731.33;1770202;81;21434;-61
2021/04/19 06:03:30;;;;;;;25.17;17.00;;;;;;;8.59;76.72;100727.39;1779879;79;21355;-60
2021/04/19 06:07:07;;;;;;;26.42;17.15;;;;;;;8.73;76.22;100725.48;1799749;79;21332;-59
2021/04/19 06:10:33;;;;;;;25.92;16.05;;;;;;;8.78;75.82;100719.88;1780950;79;21379;-59
2021/04/19 06:13:45;;;;;;;24.30;16.30;;;;;;;8.88;75.51;100728.00;1798235;79;21390;-60
2021/04/19 06:16:50;;;;;;;25.62;14.10;;;;;;;8.98;75.28;100725.55;1795609;79;21288;-60
2021/04/19 06:19:57;;;;;;;18.40;13.72;;;;;;;9.06;74.90;100716.56;1803542;79;21410;-60
2021/04/19 06:23:02;;;;;;;18.90;13.65;;;;;;;9.02;74.29;100722.00;1799970;79;21401;-61
2021/04/19 06:26:08;;;;;;;17.00;12.78;;;;;;;9.08;73.93;100714.55;1769149;80;21193;-61
2021/04/19 06:29:17;;;;;;;18.40;14.13;;;;;;;9.24;73.19;100722.00;1783546;79;21355;-59
2021/04/19 06:32:24;;;;;;;16.75;12.53;;;;;;;9.38;72.55;100716.82;1803435;79;21330;-59
2021/04/19 06:35:32;;;;;;;14.35;11.57;;;;;;;9.55;72.15;100715.91;1798950;79;21342;-60
2021/04/19 06:38:38;;;;;;;18.57;13.05;;;;;;;9.70;71.58;100712.94;1802910;79;21315;-60
2021/04/19 06:41:43;;;;;;;17.65;13.62;;;;;;;9.86;71.27;100714.89;1803054;79;21375;-60
2021/04/19 06:44:49;;;;;;;18.80;13.20;;;;;;;10.03;71.16;100714.81;1802681;79;21346;-60
2021/04/19 06:47:54;;;;;;;18.00;12.37;;;;;;;10.09;69.74;100718.78;1802317;79;21217;-60
2021/04/19 06:51:03;;;;;;;15.15;11.73;;;;;;;10.09;69.47;100715.55;1802856;79;21733;-60
2021/04/19 06:54:10;;;;;;;15.98;11.83;;;;;;;10.22;69.18;100707.74;1799925;79;21394;-60
2021/04/19 06:57:16;;;;;;;18.62;12.95;;;;;;;10.34;68.75;100703.66;1797172;79;21399;-59
2021/04/19 07:00:22;;;;;;;19.25;12.25;;;;;;;10.53;68.55;100703.38;1770436;80;21360;-60
2021/04/19 07:03:28;;;;;;;15.00;10.28;;;;;;;10.65;68.23;100700.31;1770563;80;21400;-60
2021/04/19 07:06:42;;;;;;;14.23;10.55;;;;;;;10.86;68.06;100707.00;1797075;79;21204;-61
2021/04/19 07:09:49;;;;;;;14.68;10.10;;;;;;;11.06;67.59;100700.69;1772432;79;21375;-60
2021/04/19 07:12:54;;;;;;;15.15;11.50;;;;;;;11.30;66.74;100702.05;1780652;79;21185;-60
2021/04/19 07:16:02;;;;;;;16.30;10.13;;;;;;;11.54;66.62;100693.80;1776222;79;21519;-60
2021/04/19 07:19:07;;;;;;;14.80;9.85;;;;;;;11.72;65.47;100685.73;1770667;80;21822;-60
2021/04/19 07:22:17;;;;;;;14.73;8.95;;;;;;;11.90;64.87;100688.24;1767986;80;21371;-60
2021/04/19 07:25:23;;;;;;;15.55;9.40;;;;;;;12.01;63.79;100675.51;1769828;80;21403;-60
2021/04/19 07:28:30;;;;;;;11.35;8.55;;;;;;;12.20;63.85;100674.21;1781783;79;21754;-60
2021/04/19 07:31:58;;;;;;;10.03;7.65;;;;;;;12.39;62.18;100669.14;1769778;80;21166;-60
2021/04/19 07:35:07;;;;;;;12.98;8.80;;;;;;;12.54;61.95;100665.11;1776470;79;21201;-60
2021/04/19 07:38:13;;;;;;;11.85;8.00;;;;;;;12.84;61.42;100658.71;1781043;79;21328;-60
2021/04/19 07:41:18;;;;;;;13.30;8.15;;;;;;;13.03;60.87;100666.49;1771748;81;21433;-60
2021/04/19 07:44:49;;;;;;;13.62;9.20;;;;;;;13.14;60.82;100671.03;1776782;79;21738;-60
2021/04/19 07:47:56;;;;;;;15.85;11.40;;;;;;;13.10;59.21;100671.05;1782741;79;21327;-60
2021/04/19 07:51:02;;;;;;;10.48;8.00;;;;;;;12.89;59.53;100674.97;1770972;80;21209;-59
2021/04/19 07:54:28;;;;;;;8.95;7.00;;;;;;;12.80;59.79;100667.83;1774199;79;21363;-59
2021/04/19 07:57:36;;;;;;;11.03;7.28;;;;;;;12.66;58.67;100663.64;1803891;79;21201;-61
2021/04/19 08:00:48;;;;;;;14.20;7.22;;;;;;;12.47;57.64;100665.48;1793685;79;21371;-60
2021/04/19 08:03:56;;;;;;;8.93;6.80;;;;;;;12.26;57.53;100666.66;1802794;79;21339;-58
2021/04/19 08:07:02;;;;;;;10.82;7.47;;;;;;;12.11;57.77;100657.45;1804098;79;21193;-61
2021/04/19 08:10:14;;;;;;;12.63;6.75;;;;;;;12.05;58.12;100654.90;1800385;79;21386;-60
2021/04/19 08:13:25;;;;;;;7.45;5.05;;;;;;;12.18;58.54;100654.34;1771777;81;21361;-63
2021/04/19 08:16:31;;;;;;;10.13;4.97;;;;;;;12.36;57.89;100647.55;1771338;81;21709;-61
2021/04/19 08:19:44;;;;;;;7.85;6.00;;;;;;;12.58;56.90;100652.20;1771302;80;21264;-62
2021/04/19 08:22:50;;;;;;;9.43;6.17;;;;;;;12.67;56.62;100645.61;1771227;81;21701;-59
2021/04/19 08:25:57;;;;;;;7.40;5.65;;;;;;;12.78;56.83;100649.30;1766506;80;21213;-61
2021/04/19 08:29:03;;;;;;;7.95;5.47;;;;;;;12.98;56.62;100648.28;1798286;79;21189;-61
2021/04/19 08:32:11;;;;;;;8.63;5.55;;;;;;;13.13;56.05;100651.44;1796587;79;21343;-60
2021/04/19 08:35:19;;;;;;;8.15;5.60;;;;;;;13.28;55.96;100637.22;1755786;81;21410;-60
2021/04/19 08:38:28;;;;;;;9.90;7.15;;;;;;;13.49;54.91;100642.82;1726367;81;21428;-62
2021/04/19 08:41:33;;;;;;;9.85;5.87;;;;;;;13.48;54.51;100647.14;1786945;80;21570;-62
2021/04/19 08:44:41;;;;;;;8.65;6.22;;;;;;;13.37;54.28;100640.21;1798602;79;21788;-61
2021/04/19 08:47:47;;;;;;;7.20;5.30;;;;;;;13.25;53.81;100636.22;1795214;79;21200;-60
2021/04/19 08:50:55;;;;;;;8.25;6.08;;;;;;;13.11;53.49;100642.52;1797793;79;21744;-59
2021/04/19 08:54:00;;;;;;;8.45;5.87;;;;;;;13.13;53.87;100651.44;1797141;79;22087;-60
2021/04/19 08:57:05;;;;;;;8.50;5.92;;;;;;;13.10;54.43;100644.94;1798393;79;21188;-60
2021/04/19 09:00:10;;;;;;;16.12;5.83;;;;;;;13.08;54.31;100642.06;1798116;79;21236;-62
2021/04/19 09:03:17;;;;;;;8.55;5.83;;;;;;;13.00;53.47;100646.22;1798898;79;21733;-61
2021/04/19 09:06:25;;;;;;;6.97;5.72;;;;;;;13.12;53.26;100640.13;1798640;79;21220;-59
2021/04/19 09:09:47;;;;;;;8.20;6.53;;;;;;;13.29;53.81;100636.17;1798875;79;21915;-62
2021/04/19 09:12:52;;;;;;;8.50;5.37;;;;;;;13.54;54.04;100636.23;1797700;79;21260;-59
2021/04/19 09:15:58;;;;;;;8.25;5.35;;;;;;;13.77;52.91;100636.67;1799107;79;21217;-58
2021/04/19 09:19:05;;;;;;;9.55;6.10;;;;;;;13.95;51.82;100638.52;1798001;79;21189;-60
2021/04/19 09:22:21;;;;;;;7.92;6.08;;;;;;;14.09;51.83;100642.64;1798789;80;21446;-60
2021/04/19 09:25:26;;;;;;;7.97;6.33;;;;;;;14.07;51.74;100643.34;1775641;78;21257;-60
2021/04/19 09:28:52;;;;;;;10.65;6.17;;;;;;;13.98;51.47;100639.00;1729293;83;21355;-61
2021/04/19 09:32:14;;;;;;;10.72;6.53;;;;;;;13.89;51.66;100649.75;1730152;82;21403;-60
2021/04/19 09:35:52;;;;;;;10.10;7.20;;;;;;;13.82;51.76;100639.70;1730373;82;21461;-60
2021/04/19 09:39:01;;;;;;;10.20;6.70;;;;;;;13.88;52.24;100640.31;1731232;82;21679;-60
2021/04/19 09:42:06;;;;;;;8.93;5.85;;;;;;;14.17;52.34;100643.05;1730418;83;21343;-61
2021/04/19 09:45:13;;;;;;;6.08;4.87;;;;;;;14.47;50.58;100643.34;1730293;83;21406;-59
2021/04/19 09:48:41;;;;;;;5.72;4.55;;;;;;;14.53;49.56;100642.55;1730527;81;21205;-59
2021/04/19 09:51:49;;;;;;;10.05;5.10;;;;;;;14.58;49.05;100645.06;1730126;83;21364;-61
2021/04/19 09:54:57;;;;;;;7.12;4.62;;;;;;;14.64;49.01;100637.91;1730151;83;21222;-60
2021/04/19 09:58:03;;;;;;;6.03;4.92;;;;;;;14.65;49.46;100628.06;1729738;83;21360;-60
2021/04/19 10:01:08;;;;;;;9.68;4.83;;;;;;;14.71;49.06;100636.09;1713996;83;21412;-60
2021/04/19 10:04:19;;;;;;;6.80;4.55;;;;;;;14.89;49.66;100635.08;1730320;83;21365;-60
2021/04/19 10:07:25;;;;;;;5.70;4.20;;;;;;;15.16;49.20;100630.14;1729789;83;21862;-58
2021/04/19 10:10:34;;;;;;;6.65;4.87;;;;;;;15.34;48.59;100631.89;1731469;81;21351;-61
2021/04/19 10:13:42;;;;;;;5.55;4.53;;;;;;;15.36;47.45;100637.20;1760420;81;21366;-60
2021/04/19 10:16:57;;;;;;;7.58;4.83;;;;;;;15.12;47.47;100638.50;1760562;81;21327;-60
2021/04/19 10:20:03;;;;;;;5.75;4.45;;;;;;;15.10;47.94;100646.11;1760289;81;21781;-59
2021/04/19 10:23:17;;;;;;;4.67;3.92;;;;;;;15.18;47.54;100639.07;1743990;81;21253;-61
2021/04/19 10:26:44;;;;;;;6.05;4.47;;;;;;;15.20;47.76;100627.84;1781840;79;21237;-62
2021/04/19 10:29:52;;;;;;;6.95;4.92;;;;;;;15.29;47.85;100631.63;1800902;79;21370;-60
2021/04/19 10:32:58;;;;;;;4.78;4.28;;;;;;;15.37;47.51;100633.37;1787100;79;21339;-61
2021/04/19 10:36:03;;;;;;;5.53;4.92;;;;;;;15.31;47.74;100631.43;1774246;79;21268;-60
2021/04/19 10:39:20;;;;;;;5.45;4.42;;;;;;;15.24;47.48;100628.61;1769611;81;21257;-60
2021/04/19 10:42:32;;;;;;;5.78;4.20;;;;;;;15.17;47.11;100630.48;1742589;81;21347;-60
2021/04/19 10:45:40;;;;;;;6.30;4.75;;;;;;;15.13;47.53;100634.67;1690993;84;21293;-60
2021/04/19 10:48:46;;;;;;;6.08;5.47;;;;;;;15.14;47.39;100630.89;1769828;81;21205;-60
2021/04/19 10:51:53;;;;;;;6.40;5.25;;;;;;;14.85;48.31;100634.65;1777169;80;21193;-60
2021/04/19 10:55:00;;;;;;;9.85;5.15;;;;;;;14.70;48.48;100635.73;1780245;79;21260;-61
2021/04/19 10:58:09;;;;;;;5.60;4.58;;;;;;;14.52;48.71;100636.21;1804088;79;21355;-60
2021/04/19 11:01:14;;;;;;;6.15;4.62;;;;;;;14.37;49.39;100629.02;1802633;79;21760;-60
2021/04/19 11:04:19;;;;;;;5.33;4.65;;;;;;;14.35;49.55;100636.64;1803239;79;21378;-60
2021/04/19 11:07:39;;;;;;;5.83;4.75;;;;;;;14.33;49.77;100634.59;1803266;79;21804;-60
2021/04/19 11:10:45;;;;;;;7.67;4.62;;;;;;;14.32;50.10;100632.35;1803895;79;21287;-60
2021/04/19 11:13:51;;;;;;;8.73;4.90;;;;;;;14.30;49.76;100631.69;1770476;81;21201;-61
2021/04/19 11:17:06;;;;;;;6.55;4.60;;;;;;;14.31;49.60;100632.55;1736114;82;21224;-60
2021/04/19 11:20:32;;;;;;;4.72;3.87;;;;;;;14.18;50.25;100630.97;1692541;84;21563;-59
2021/04/19 11:23:38;;;;;;;5.33;4.20;;;;;;;14.21;50.33;100625.94;1743175;81;21758;-60
2021/04/19 11:26:48;;;;;;;6.10;4.40;;;;;;;14.31;49.91;100629.80;1713186;81;21773;-60
2021/04/19 11:29:53;;;;;;;5.65;4.12;;;;;;;14.32;49.78;100630.11;1772751;79;21394;-60
2021/04/19 11:33:22;;;;;;;6.78;4.75;;;;;;;14.32;49.71;100623.23;1790403;79;21401;-60
2021/04/19 11:36:29;;;;;;;8.88;4.47;;;;;;;14.40;49.89;100624.48;1769390;79;21185;-60
2021/04/19 11:39:35;;;;;;;6.83;4.65;;;;;;;14.45;50.26;100626.14;1734356;82;21227;-60
2021/04/19 11:42:43;;;;;;;6.62;4.03;;;;;;;14.61;50.28;100621.77;1776603;79;21161;-60
2021/04/19 11:45:48;;;;;;;6.78;4.35;;;;;;;14.76;49.67;100626.70;1792183;79;21214;-60
2021/04/19 11:48:56;;;;;;;10.35;4.22;;;;;;;14.91;49.27;100615.07;1792278;79;21240;-60
2021/04/19 11:52:00;;;;;;;5.28;3.85;;;;;;;15.12;49.54;100606.78;1770586;79;21742;-61
2021/04/19 11:55:05;;;;;;;5.20;4.12;;;;;;;15.32;49.11;100607.78;1775291;79;21272;-62
2021/04/19 11:58:11;;;;;;;7.72;4.58;;;;;;;15.41;48.56;100608.01;1803059;79;21402;-61
2021/04/19 12:01:21;;;;;;;4.90;3.92;;;;;;;15.26;48.08;100603.59;1802948;79;21354;-60
2021/04/19 12:04:25;;;;;;;10.82;5.90;;;;;;;15.08;49.05;100601.33;1803088;79;21370;-60
2021/04/19 12:07:30;;;;;;;11.50;4.50;;;;;;;15.11;49.32;100599.55;1803397;79;21354;-57
2021/04/19 12:10:42;;;;;;;5.85;4.47;;;;;;;15.16;48.99;100602.56;1803292;79;21725;-57
2021/04/19 12:13:49;;;;;;;6.72;4.28;;;;;;;15.42;49.37;100600.56;1803436;79;21896;-60
2021/04/19 12:16:55;;;;;;;5.70;4.00;;;;;;;15.81;49.54;100593.37;1803808;79;21722;-59
2021/04/19 12:20:02;;;;;;;7.78;4.00;;;;;;;16.00;47.98;100596.76;1803133;79;21939;-59
2021/04/19 12:23:09;;;;;;;6.37;3.75;;;;;;;15.96;47.01;100589.95;1804057;79;21209;-60
2021/04/19 12:26:14;;;;;;;4.67;3.83;;;;;;;15.85;46.58;100596.06;1803955;79;21341;-60
2021/04/19 12:29:22;;;;;;;7.15;3.80;;;;;;;15.82;46.98;100592.86;1790119;79;21355;-60
2021/04/19 12:32:30;;;;;;;6.60;4.95;;;;;;;15.81;47.06;100596.13;1790995;80;21336;-59
2021/04/19 12:35:39;;;;;;;6.17;3.72;;;;;;;15.81;47.39;100600.27;1793683;79;21351;-60
2021/04/19 12:38:43;;;;;;;5.12;3.62;;;;;;;15.85;47.95;100599.34;1793421;80;21654;-59
2021/04/19 12:41:49;;;;;;;3.60;3.30;;;;;;;15.89;47.96;100593.20;1791401;80;21347;-60
2021/04/19 12:44:54;;;;;;;4.80;3.98;;;;;;;15.96;48.05;100588.58;1790921;79;21331;-61
2021/04/19 12:48:02;;;;;;;6.33;3.70;;;;;;;15.97;47.68;100585.27;1791072;80;21349;-60
2021/04/19 12:51:08;;;;;;;3.90;3.45;;;;;;;16.03;47.60;100585.30;1791116;79;21367;-61
2021/04/19 12:54:13;;;;;;;6.87;3.60;;;;;;;16.32;48.30;100583.61;1790537;79;21362;-59
2021/04/19 12:57:18;;;;;;;4.03;3.45;;;;;;;16.66;47.58;100583.19;1790678;80;21354;-60
2021/04/19 13:00:28;;;;;;;6.70;3.62;;;;;;;16.82;46.75;100575.87;1790834;79;21225;-61
2021/04/19 13:03:35;;;;;;;5.62;3.00;;;;;;;16.81;45.33;100568.66;1791167;80;21336;-60
2021/04/19 13:06:41;;;;;;;4.87;3.25;;;;;;;16.71;44.60;100571.83;1790801;80;21787;-60
2021/04/19 13:09:48;;;;;;;5.12;3.40;;;;;;;16.65;44.28;100576.80;1790863;79;21400;-60
2021/04/19 13:12:54;;;;;;;13.13;3.70;;;;;;;16.60;44.98;100572.97;1775702;80;21365;-59
2021/04/19 13:16:00;;;;;;;5.42;3.67;;;;;;;16.55;45.25;100568.60;1768612;80;21221;-59
2021/04/19 13:19:05;;;;;;;5.17;3.10;;;;;;;16.50;45.12;100568.38;1769633;80;21403;-60
2021/04/19 13:22:10;;;;;;;5.17;3.70;;;;;;;16.28;45.21;100575.95;1768660;80;21276;-60
2021/04/19 13:25:18;;;;;;;6.28;3.50;;;;;;;16.05;45.11;100574.91;1769071;80;21205;-61
2021/04/19 13:28:25;;;;;;;5.05;4.00;;;;;;;15.82;44.94;100568.87;1782701;80;21197;-60
2021/04/19 13:31:34;;;;;;;5.45;4.35;;;;;;;15.72;45.04;100578.05;1765262;81;21189;-59
2021/04/19 13:34:42;;;;;;;5.75;3.83;;;;;;;15.74;45.83;100573.19;1702312;83;21391;-60
2021/04/19 13:37:47;;;;;;;5.97;4.37;;;;;;;15.84;46.03;100569.50;1763545;81;21378;-60
2021/04/19 13:40:53;;;;;;;8.73;4.05;;;;;;;15.91;45.93;100564.87;1760026;81;21235;-60
2021/04/19 13:44:01;;;;;;;5.28;4.12;;;;;;;15.89;45.45;100560.59;1759646;81;21582;-61
2021/04/19 13:47:08;;;;;;;6.97;4.12;;;;;;;15.87;45.32;100555.83;1759661;81;21201;-60
2021/04/19 13:50:17;;;;;;;9.30;3.92;;;;;;;15.79;45.54;100561.52;1759633;81;21233;-61
2021/04/19 13:53:24;;;;;;;5.33;3.60;;;;;;;15.83;45.80;100555.37;1759853;81;21268;-60
2021/04/19 13:56:29;;;;;;;5.20;4.00;;;;;;;15.97;45.65;100546.09;1760700;81;21203;-59
2021/04/19 13:59:36;;;;;;;6.28;4.28;;;;;;;16.09;45.18;100554.09;1767086;81;21598;-60
2021/04/19 14:02:41;;;;;;;4.85;4.12;;;;;;;16.14;45.00;100544.66;1770090;80;21515;-60
2021/04/19 14:05:51;;;;;;;4.70;3.95;;;;;;;16.31;44.98;100543.23;1767146;80;21236;-61
2021/04/19 14:08:59;;;;;;;11.25;4.25;;;;;;;16.60;44.38;100543.95;1767058;81;21211;-61
2021/04/19 14:12:06;;;;;;;5.25;4.20;;;;;;;16.62;43.92;100541.84;1768174;80;21347;-62
2021/04/19 14:15:15;;;;;;;6.53;4.10;;;;;;;16.39;43.56;100545.77;1767345;81;21225;-63
2021/04/19 14:18:23;;;;;;;4.72;4.10;;;;;;;16.46;44.11;100547.77;1767394;80;21363;-63
2021/04/19 14:21:30;;;;;;;6.03;3.37;;;;;;;16.72;43.48;100535.34;1767266;80;21260;-60
2021/04/19 14:24:37;;;;;;;5.42;3.47;;;;;;;17.02;42.80;100540.77;1767823;80;21275;-61
2021/04/19 14:27:43;;;;;;;4.60;3.58;;;;;;;16.98;42.80;100540.89;1734926;82;21280;-63
2021/04/19 14:30:53;;;;;;;5.42;3.47;;;;;;;17.08;42.46;100537.13;1747950;80;21733;-62
2021/04/19 14:34:03;;;;;;;4.40;3.37;;;;;;;16.84;41.46;100533.66;1763973;81;21797;-61